ARFOR WordPress Shortcode Example

and like us on FB

This page is used to demonstrate the ARFOR feature of the Metar WordPress plugin.

BANKSTOWN YSBK

TAF YSBK 201632Z 2018/2112
35004KT CAVOK
FM210200 05015KT CAVOK
FM211000 02008KT CAVOK
RMK
T 18 21 29 33 Q 1013 1014 1013 1011

METAR YSBK 201900Z AUTO 00000KT //// // ////// 17/16 Q1013 RMK
RF00.0/000.0

BATHURST YBTH

TAF YBTH 201751Z 2019/2108
10008KT CAVOK
FM202300 04010KT CAVOK
RMK
T 15 24 33 36 Q 1015 1017 1015 1014

METAR YBTH 201900Z AUTO 04001KT 9999 // NCD 14/02 Q1016 RMK
RF00.0/000.0

CAMDEN YSCN

TAF AMD YSCN 201636Z 2018/2112
VRB03KT CAVOK
FM202300 02005KT CAVOK
FM210300 05013KT CAVOK
FM211000 02005KT CAVOK
PROB30 2018/2021 5000 FU
RMK
T 17 21 29 36 Q 1013 1015 1013 1010

METAR YSCN 201900Z AUTO 00000KT 9000 // NCD 15/14 Q1013 RMK
RF00.0/000.0

* CANBERRA YSCB

TAF YSCB 201708Z 2018/2118
11005KT CAVOK
BECMG 2022/2024 33012KT CAVOK
FM211000 03008KT CAVOK
RMK
T 16 22 32 36 Q 1014 1016 1015 1012

METAR YSCB 201900Z 09004KT CAVOK 13/06 Q1015
RMK RF00.0/000.0

COOMA YCOM

TAF YCOM 201751Z 2019/2108
03008KT CAVOK
FM210000 30012KT CAVOK
RMK
T 15 24 32 33 Q 1016 1016 1015 1013

METAR YCOM 201900Z AUTO 06008KT 9999 // NCD 14/06 Q1016 RMK
RF00.0/000.0

COOTAMUNDRA YCTM

Nil current TAF.

METAR/SPECI observations are not generated for this location.

COWRA YCWR

Nil current TAF.

METAR YCWR 201900Z AUTO 11005KT 070V130 //// // ////// 20/06 Q1011
RMK RF00.0/000.0

FORBES YFBS

Nil current TAF.

METAR YFBS 201900Z AUTO 04003KT //// // ////// 19/05 Q1010 RMK
RF00.0////./

GOULBURN YGLB

TAF YGLB 201746Z 2019/2108
02008KT CAVOK
FM210000 33010KT CAVOK
RMK
T 13 25 34 37 Q 1015 1016 1014 1011

METAR YGLB 201900Z AUTO 13003KT 9999 // NCD 09/05 Q1015 RMK
RF00.0/000.0 PRESENT WEATHER SENSOR US

HOLSWORTHY YSHW

TAF YSHW 201632Z 2018/2112
35004KT CAVOK
FM210200 05015KT CAVOK
FM211000 02008KT CAVOK
RMK
T 18 21 29 33 Q 1013 1014 1013 1011

METAR YSHW 201900Z AUTO 22003KT //// // ////// 17/16 Q1013 RMK
RF00.0/000.0

LORD HOWE ISLAND YLHI

TAF AMD YLHI 201709Z 2018/2118
15012KT 9999 -SHRA SCT020 SCT030
TEMPO 2022/2118 7000 SHRA SCT015 BKN025
RMK
T 22 24 24 25 Q 1011 1013 1013 1012

METAR YLHI 201900Z AUTO 14006KT 9999 // SCT021 SCT027 22/18 Q1012
RMK RF00.0/000.4

MALLACOOTA YMCO

Nil current TAF.

METAR YMCO 201900Z AUTO 21002KT //// // ////// 20/18 Q1011 RMK
RF00.0/000.0

MERIMBULA YMER

TAF AMD YMER 201817Z 2018/2108
VRB03KT 9999 BKN004
BECMG 2020/2022 06008KT CAVOK
PROB30 2019/2021 2000 BR
RMK
T 16 22 26 27 Q 1011 1011 1010 1008

SPECI YMER 201900Z AUTO 00000KT 9999 // BKN006 17/16 Q1011 RMK
RF00.0/000.0

MORUYA YMRY

TAF YMRY 201754Z 2019/2108
36003KT 9999 FEW010
BECMG 2022/2024 05013KT CAVOK
PROB30 2019/2021 3000 BR
RMK
T 17 24 30 30 Q 1011 1011 1009 1007

SPECI YMRY 201903Z AUTO 31002KT 4700 // NCD 13/12 Q1011 RMK
RF00.0/000.0

NORFOLK ISLAND YSNF

TAF AMD YSNF 201709Z 2018/2118
02010KT 9999 -SHRA SCT010 BKN020
FM210200 33005KT 9999 -SHRA SCT008 BKN018
INTER 2018/2102 4000 SHRA BKN010
INTER 2102/2118 6000 -SHRA BKN015
RMK
T 22 24 25 25 Q 1011 1013 1013 1012

METAR YSNF 201900Z AUTO 02002KT 9999 // NCD 21/21 Q1012 RMK
RF00.0/000.8

* NOWRA YSNW

YSNW TAF YSNW 201650Z 2018/2106
30005KT 9999 FEW010
BECMG 2100/2101 05014KT CAVOK
RMK
T 16 22 30 34 Q 1011 1013 1011 1009

METAR YSNW 201900Z AUTO 34004KT 9999 // NCD 13/11 Q1011
RMK RF00.0/000.0

ORANGE YORG

TAF YORG 201751Z 2019/2108
08008KT CAVOK
FM202200 02012KT CAVOK
RMK
T 16 25 31 33 Q 1016 1018 1017 1015

METAR YORG 201900Z AUTO 00000KT 9999 // NCD 16/M01 Q1017 RMK
RF00.0/000.0

PARKES YPKS

TAF YPKS 201745Z 2019/2108
04012KT CAVOK
FM210200 01012KT CAVOK
RMK FM201900 MOD TURB BLW 5000FT TILL202100
T 23 31 36 38 Q 1011 1013 1012 1009

METAR YPKS 201900Z AUTO 07010KT //// // NCD 25/M01 Q1011 RMK
RF00.0/000.0

RICHMOND (NSW) YSRI

TAF YSRI 201727Z 2018/2118
VRB03KT 9999 SCT010
FM202200 03006KT 9999 FEW020
FM210200 06014KT CAVOK
FM211100 04007KT CAVOK
FM211500 VRB03KT CAVOK
PROB30 2018/2021 3000 BR
RMK
T 17 21 30 36 Q 1013 1014 1013 1010

METAR YSRI 201900Z AUTO 00000KT 9999 // NCD 15/14 Q1013 RMK
RF00.0/000.0 PRESENT WEATHER SENSOR US

* SYDNEY YSSY

TAF YSSY 201634Z 2018/2124
30008KT 9999 FEW015
FM202300 01010KT CAVOK
FM210200 04018G28KT CAVOK
FM211000 03015KT 9999 FEW010
FM211600 01010KT CAVOK
RMK
T 20 22 27 29 Q 1013 1014 1013 1011

TTF METAR YSSY 201900Z 31005KT 9999 FEW020 21/20 Q1013
RMK RF00.0/000.0
NOSIG

TEMORA YTEM

Nil current TAF.

METAR YTEM 201900Z AUTO 00000KT //// // ////// 18/05 Q1011 RMK
RF00.0/000.0

WAGGA WAGGA YSWG

TAF YSWG 201708Z 2018/2106
07011KT CAVOK
FM202300 01012KT CAVOK
RMK
T 24 26 35 39 Q 1009 1011 1011 1008

METAR YSWG 201900Z AUTO 09006KT 9999 // ////// 25/04 Q1010 RMK
RF00.0/000.0

WOLLONGONG YWOL

TAF YWOL 201753Z 2019/2108
35005KT CAVOK
FM202300 02014KT CAVOK
RMK
T 17 25 30 31 Q 1012 1013 1012 1010

METAR YWOL 201900Z AUTO 30003KT 9999 // NCD 14/13 Q1012 RMK
RF00.0/000.0

YOUNG YYNG

TAF YYNG 201746Z 2019/2108
04007KT CAVOK
FM210000 35010KT CAVOK
RMK
T 17 28 36 38 Q 1011 1013 1011 1009

METAR YYNG 201900Z AUTO 19004KT 9999 // NCD 14/07 Q1011 RMK
RF00.0/000.0

* Note: The latest TTF automatically supersedes the TAF for the 3 hr validity of the TTF, unless otherwise specified in the TTF.